Terminal Aerodrome Forecast
Issued by NWS

Home | Current Version | Previous Version | Text Only | Print | Product List | Glossary On
Versions: 1 2 3 4 5 6 7 8 9 10 11 12 13 14 15 16 17 18 19 20 21
000
FTUS44 KEWX 012300
TAFSSF
TAF
KSSF 012340Z 0200/0224 01005KT P6SM SCT070 BKN250
     FM021200 06006KT P6SM SCT020 BKN120
     FM021600 04008KT P6SM SCT035 BKN200=

USA.gov is the U.S. government's official web portal to all federal, state and local government web resources and services.